Flight ASX205

  • Submitted By: Lukasz Przybylak
  • Departure Airport: Katowice Pyrzowice (EPKT)
  • Arrival Airport: Gdansk im. Lecha Walesy (EPGD)
  • Aircraft: KING AIR 350 (SP-DBL)
  • Flight Time: 01.20.44
  • Date Submitted: 09/10/2017
  • Route: NAVUR N744 OVBOR N133 PENEX N133 GRUDA Z95 OSLOG
  • Status: Accepted
Flight Details
Gross Revenue:
(8 load / € 80.00 per unit
€ 640.00
Fuel Cost:
(322.958 fuel used @ 0.45 / unit)
€ 145.33

Additional Log Information:

View Log

[05:04] - CARENADO B350i King Air 5003
[05:04] - Flight ASX205 is ready to depart EPKT with a final destination of EPGD.
[05:04] - Parking Brake Applied
[05:04] - Navigation Lights ON
[05:04] - Beacon Light ON
[05:04] - Instrument Lights ON
[05:04] - Boarding
[05:04] - ADF1 - 284.0
[05:04] - ADF2 - 240.0
[05:04] - NAV1 - 113.70
[05:04] - NAV2 - 110.60
[05:04] - COM1 - 128.30
[05:04] - COM2 - 127.80
[05:04] - Transponder - 1200
[05:05] - Engine 1 Started
[05:05] - Engine 2 Started
[05:07] - Taxi Lights ON 6AGL
[05:14] - Pushing Back from the gate
[05:14] - Parking Brake Released
[05:16] - Wing Lights ON 6AGL
[05:16] - Recognition Lights ON 6AGL
[05:16] - Taxiing to Runway
[05:18] - Landing Lights ON 6AGL
[05:18] - Taxi Lights OFF 6AGL
[05:18] - Flaps to position 1
[05:19] - Taking Off with 8 passengers on board
[05:19] - Take off at 129kts, with a pitch of 4deg and 3620lbs of fuel on board
[05:19] - Wind Heading 136 | Wind Speed 6kts | Temperature 15 deg C
[05:19] - METAR Departure: EPKT 100300Z 15006KT CAVOK 14/11 Q1004

[05:19] - Flaps to position 0 at 1322ft and 136kts
[05:19] - Climbing to TOC
[05:20] - AutoPilot Engaged at 797AGL
[05:24] - Gear up at 5532AGL
[05:24] - Landing Lights OFF 5833AGL
[05:24] - Strobe Lights ON 5931AGL
[05:24] - Recognition Lights OFF 5948AGL
[05:36] - COM1 - 122.80
[05:37] - NAV1 - 110.30
[05:38] - TOC reached
[05:38] - Cruise started
[06:04] - TOD reached
[06:04] - Descending to destination
[06:10] - Landing Lights ON 9423AGL
[06:13] - Landing Shortly
[06:17] - Flaps to position 1 at 2405ft and 195kts
[06:17] - Gear down at 2464AGL
[06:18] - AutoPilot Disengaged at 1447AGL
[06:19] - Flaps to position 2 at 1480ft and 158kts
[06:21] - Landed at -167fpm. With 2952lbs of fuel onboard and a pitch angle of 1deg.
[06:21] - Wind Heading 241 | Wind Speed 5kts | Temperature 14 deg C
[06:21] - METAR Arrival: EPGD 100400Z 22003KT 200V280 CAVOK 15/13 Q1002

[06:21] - Taxiing to Gate
[06:22] - Landing Lights OFF 3AGL
[06:22] - Taxi Lights ON 3AGL
[06:22] - Recognition Lights ON 3AGL
[06:22] - Strobe Lights OFF 3AGL
[06:23] - Parking Brake Applied
[06:23] - Arrived safely at EPGD. We hope you enjoyed your flight!
[06:23] - Engine 1 Stopped
[06:23] - Engine 2 Stopped
[06:24] - Taxi Lights OFF 3AGL
[06:24] - Wing Lights OFF 3AGL
[06:24] - Recognition Lights OFF 3AGL
[06:25] - CARENADO B350i King Air 5003
[06:25] - MaxSim Rate: 1x
[06:25] - SiouxAcars ver: 1.0.1.2

Route Map